Time;durP1;ratioP1;P1;durP2;ratioP2;P2;SDS_P1;SDS_P2;PMS_P1;PMS_P2;Temp;Humidity;BMP_temperature;BMP_pressure;BME280_temperature;BME280_humidity;BME280_pressure;Samples;Min_cycle;Max_cycle;Signal;HPM_P1;HPM_P2
2021/08/19 00:00:38;;;;;;;0.30;0.30;;;;;;;;;;5115362;28;20478;-66
2021/08/19 00:03:04;;;;;;;0.30;0.30;;;;;;;;;;5115792;28;20873;-66
2021/08/19 00:05:30;;;;;;;0.30;0.30;;;;;;;;;;5115474;28;20399;-66
2021/08/19 00:07:56;;;;;;;0.30;0.30;;;;;;;;;;5115315;28;20437;-66
2021/08/19 00:10:22;;;;;;;0.30;0.30;;;;;;;;;;5115196;28;20411;-66
2021/08/19 00:12:48;;;;;;;0.30;0.30;;;;;;;;;;5115425;28;20853;-66
2021/08/19 00:15:14;;;;;;;0.30;0.30;;;;;;;;;;5115294;28;20408;-66
2021/08/19 00:17:41;;;;;;;0.30;0.30;;;;;;;;;;5115148;28;20514;-66
2021/08/19 00:20:07;;;;;;;0.30;0.30;;;;;;;;;;5115057;28;20569;-66
2021/08/19 00:22:33;;;;;;;0.30;0.30;;;;;;;;;;5115098;28;20402;-66
2021/08/19 00:25:00;;;;;;;0.30;0.30;;;;;;;;;;5115399;28;20478;-66
2021/08/19 00:27:26;;;;;;;0.30;0.30;;;;;;;;;;5114996;28;20405;-66
2021/08/19 00:29:52;;;;;;;0.30;0.30;;;;;;;;;;5114793;28;20412;-66
2021/08/19 00:32:18;;;;;;;0.40;0.40;;;;;;;;;;5115015;28;20431;-66
2021/08/19 00:34:44;;;;;;;0.30;0.30;;;;;;;;;;5114917;28;20447;-66
2021/08/19 00:37:10;;;;;;;0.30;0.30;;;;;;;;;;5114799;28;20884;-66
2021/08/19 00:39:39;;;;;;;0.30;0.30;;;;;;;;;;5114396;28;20479;-66
2021/08/19 00:42:06;;;;;;;0.30;0.30;;;;;;;;;;5114828;28;20432;-66
2021/08/19 00:44:32;;;;;;;0.30;0.30;;;;;;;;;;5114701;28;20399;-66
2021/08/19 00:46:58;;;;;;;0.30;0.30;;;;;;;;;;5114749;28;20385;-66
2021/08/19 00:49:24;;;;;;;0.30;0.30;;;;;;;;;;5114242;28;20629;-66
2021/08/19 00:51:52;;;;;;;0.30;0.30;;;;;;;;;;5114297;28;20406;-66
2021/08/19 00:54:26;;;;;;;0.30;0.30;;;;;;;;;;5114573;28;20443;-66
2021/08/19 00:56:56;;;;;;;0.30;0.30;;;;;;;;;;5114471;28;20485;-66
2021/08/19 00:59:23;;;;;;;0.30;0.30;;;;;;;;;;5114152;28;20890;-65
2021/08/19 01:01:50;;;;;;;0.30;0.30;;;;;;;;;;5114518;28;20404;-65
2021/08/19 01:04:16;;;;;;;0.30;0.30;;;;;;;;;;5114307;28;20404;-65
2021/08/19 01:06:42;;;;;;;0.30;0.30;;;;;;;;;;5114334;28;20403;-66
2021/08/19 01:09:08;;;;;;;0.30;0.30;;;;;;;;;;5114013;28;20434;-66
2021/08/19 01:11:36;;;;;;;0.30;0.30;;;;;;;;;;5114406;28;20412;-66
2021/08/19 01:14:04;;;;;;;0.30;0.30;;;;;;;;;;5114124;28;20410;-66
2021/08/19 01:16:31;;;;;;;0.30;0.30;;;;;;;;;;5114157;28;20414;-65
2021/08/19 01:18:57;;;;;;;0.30;0.30;;;;;;;;;;5113742;28;20462;-66
2021/08/19 01:21:23;;;;;;;0.30;0.30;;;;;;;;;;5114067;28;20402;-66
2021/08/19 01:23:50;;;;;;;0.30;0.30;;;;;;;;;;5114157;28;20776;-65
2021/08/19 01:26:18;;;;;;;0.30;0.30;;;;;;;;;;5113882;28;20441;-65
2021/08/19 01:28:45;;;;;;;0.30;0.30;;;;;;;;;;5113671;28;20431;-65
2021/08/19 01:31:15;;;;;;;0.30;0.30;;;;;;;;;;5113722;28;20428;-66
2021/08/19 01:33:45;;;;;;;0.30;0.30;;;;;;;;;;5113582;28;20505;-66
2021/08/19 01:36:12;;;;;;;0.30;0.30;;;;;;;;;;5113880;28;20448;-65
2021/08/19 01:38:39;;;;;;;0.30;0.30;;;;;;;;;;5113232;28;20494;-66
2021/08/19 01:41:05;;;;;;;0.30;0.30;;;;;;;;;;5113626;28;20438;-65
2021/08/19 01:43:31;;;;;;;0.30;0.30;;;;;;;;;;5113490;28;20399;-66
2021/08/19 01:46:10;;;;;;;0.30;0.30;;;;;;;;;;5113564;28;20495;-66
2021/08/19 01:48:37;;;;;;;0.30;0.30;;;;;;;;;;5113182;28;20791;-66
2021/08/19 01:51:04;;;;;;;0.30;0.30;;;;;;;;;;5113481;28;20938;-66
2021/08/19 01:53:30;;;;;;;0.30;0.30;;;;;;;;;;5113398;28;20377;-66
2021/08/19 01:55:56;;;;;;;0.30;0.30;;;;;;;;;;5113288;28;20408;-66
2021/08/19 01:58:22;;;;;;;0.30;0.30;;;;;;;;;;5112846;28;20482;-65
2021/08/19 02:00:49;;;;;;;0.30;0.30;;;;;;;;;;5113258;28;20399;-66
2021/08/19 02:03:15;;;;;;;0.30;0.30;;;;;;;;;;5112475;28;20902;-66
2021/08/19 02:05:41;;;;;;;0.30;0.30;;;;;;;;;;5113164;28;20483;-66
2021/08/19 02:08:08;;;;;;;0.30;0.30;;;;;;;;;;5113056;28;20431;-66
2021/08/19 02:10:35;;;;;;;0.30;0.30;;;;;;;;;;5112729;28;20403;-66
2021/08/19 02:13:01;;;;;;;0.30;0.30;;;;;;;;;;5112994;28;20436;-66
2021/08/19 02:15:27;;;;;;;0.30;0.30;;;;;;;;;;5112897;28;20381;-65
2021/08/19 02:17:53;;;;;;;0.30;0.30;;;;;;;;;;5112850;28;20470;-66
2021/08/19 02:20:19;;;;;;;0.30;0.30;;;;;;;;;;5112717;28;20898;-66
2021/08/19 02:22:47;;;;;;;0.30;0.30;;;;;;;;;;5112826;28;20412;-66
2021/08/19 02:25:13;;;;;;;0.40;0.40;;;;;;;;;;5112766;28;20792;-66
2021/08/19 02:27:39;;;;;;;0.40;0.40;;;;;;;;;;5112537;28;20382;-66
2021/08/19 02:30:06;;;;;;;0.30;0.30;;;;;;;;;;5112490;28;20410;-65
2021/08/19 02:32:32;;;;;;;0.30;0.30;;;;;;;;;;5112678;28;20446;-66
2021/08/19 02:34:58;;;;;;;0.30;0.30;;;;;;;;;;5094419;28;20397;-66
2021/08/19 02:37:24;;;;;;;0.30;0.30;;;;;;;;;;5112442;28;20424;-66
2021/08/19 02:39:50;;;;;;;0.40;0.40;;;;;;;;;;5112096;28;20480;-66
2021/08/19 02:42:16;;;;;;;0.30;0.30;;;;;;;;;;5112466;28;20402;-66
2021/08/19 02:44:42;;;;;;;0.30;0.30;;;;;;;;;;5112491;28;20936;-66
2021/08/19 02:47:08;;;;;;;0.30;0.30;;;;;;;;;;5112439;28;20403;-66
2021/08/19 02:49:34;;;;;;;0.30;0.30;;;;;;;;;;5112079;28;20428;-66
2021/08/19 02:52:00;;;;;;;0.30;0.30;;;;;;;;;;5112896;28;20406;-66
2021/08/19 02:54:26;;;;;;;0.30;0.30;;;;;;;;;;5112211;28;20439;-66
2021/08/19 02:56:52;;;;;;;0.30;0.30;;;;;;;;;;5112072;28;20511;-66
2021/08/19 02:59:18;;;;;;;0.30;0.30;;;;;;;;;;5111943;28;20903;-66
2021/08/19 03:01:44;;;;;;;0.30;0.30;;;;;;;;;;5112259;28;20480;-66
2021/08/19 03:04:10;;;;;;;0.30;0.30;;;;;;;;;;5112162;28;20770;-66
2021/08/19 03:06:36;;;;;;;0.30;0.30;;;;;;;;;;5112140;28;20551;-66
2021/08/19 03:09:02;;;;;;;0.30;0.30;;;;;;;;;;5111734;28;20423;-66
2021/08/19 03:11:28;;;;;;;0.30;0.30;;;;;;;;;;5111964;28;20446;-66
2021/08/19 03:13:54;;;;;;;0.30;0.30;;;;;;;;;;5111962;28;20403;-66
2021/08/19 03:16:21;;;;;;;0.30;0.30;;;;;;;;;;5112062;28;20440;-65
2021/08/19 03:18:47;;;;;;;0.30;0.30;;;;;;;;;;5111650;28;20502;-65
2021/08/19 03:21:13;;;;;;;0.30;0.30;;;;;;;;;;5111930;28;20436;-66
2021/08/19 03:23:39;;;;;;;0.30;0.30;;;;;;;;;;5111958;28;20805;-66
2021/08/19 03:26:06;;;;;;;0.30;0.30;;;;;;;;;;5112124;28;20445;-66
2021/08/19 03:28:32;;;;;;;0.30;0.30;;;;;;;;;;5111707;28;20852;-65
2021/08/19 03:30:58;;;;;;;0.30;0.30;;;;;;;;;;5111907;28;20426;-66
2021/08/19 03:33:24;;;;;;;0.30;0.30;;;;;;;;;;5111876;28;20396;-66
2021/08/19 03:35:50;;;;;;;0.30;0.30;;;;;;;;;;5111832;28;20910;-66
2021/08/19 03:38:16;;;;;;;0.30;0.30;;;;;;;;;;5111373;28;21042;-65
2021/08/19 03:40:42;;;;;;;0.30;0.30;;;;;;;;;;5111736;28;20442;-66
2021/08/19 03:43:10;;;;;;;0.30;0.30;;;;;;;;;;5112040;28;20711;-65
2021/08/19 03:45:36;;;;;;;0.30;0.30;;;;;;;;;;5111771;28;20440;-65
2021/08/19 03:48:02;;;;;;;0.30;0.30;;;;;;;;;;5111717;28;20458;-66
2021/08/19 03:50:28;;;;;;;0.30;0.30;;;;;;;;;;5111486;28;20907;-66
2021/08/19 03:52:54;;;;;;;0.30;0.30;;;;;;;;;;5111805;28;20389;-66
2021/08/19 03:55:20;;;;;;;0.30;0.30;;;;;;;;;;5111840;28;20408;-66
2021/08/19 03:57:47;;;;;;;0.30;0.30;;;;;;;;;;5111479;28;20555;-66
2021/08/19 04:00:13;;;;;;;0.30;0.30;;;;;;;;;;5111431;28;20941;-66
2021/08/19 04:02:39;;;;;;;0.30;0.30;;;;;;;;;;5111586;28;20460;-66
2021/08/19 04:05:06;;;;;;;0.30;0.30;;;;;;;;;;5111521;28;20404;-66
2021/08/19 04:07:31;;;;;;;0.30;0.30;;;;;;;;;;5111431;28;20883;-66
2021/08/19 04:09:57;;;;;;;0.30;0.30;;;;;;;;;;5111330;28;20384;-66
2021/08/19 04:12:23;;;;;;;0.30;0.30;;;;;;;;;;5111483;28;20421;-66
2021/08/19 04:14:49;;;;;;;0.30;0.30;;;;;;;;;;5111600;28;20374;-66
2021/08/19 04:17:15;;;;;;;0.30;0.30;;;;;;;;;;5111321;28;20455;-66
2021/08/19 04:19:41;;;;;;;0.30;0.30;;;;;;;;;;5111010;28;20492;-66
2021/08/19 04:22:07;;;;;;;0.30;0.30;;;;;;;;;;5111665;28;20425;-65
2021/08/19 04:24:33;;;;;;;0.30;0.30;;;;;;;;;;5111386;28;20435;-66
2021/08/19 04:27:00;;;;;;;0.30;0.30;;;;;;;;;;5114322;28;20411;-65
2021/08/19 04:29:25;;;;;;;0.30;0.30;;;;;;;;;;5114746;28;20419;-65
2021/08/19 04:31:51;;;;;;;0.30;0.30;;;;;;;;;;5115017;28;20380;-66
2021/08/19 04:34:17;;;;;;;0.30;0.30;;;;;;;;;;5115070;28;20407;-65
2021/08/19 04:36:45;;;;;;;0.30;0.30;;;;;;;;;;5114998;28;20399;-65
2021/08/19 04:39:11;;;;;;;0.30;0.30;;;;;;;;;;5114601;28;20435;-66
2021/08/19 04:41:37;;;;;;;0.30;0.30;;;;;;;;;;5138617;22;20413;-67
2021/08/19 04:44:04;;;;;;;0.30;0.30;;;;;;;;;;5073153;28;20415;-66
2021/08/19 04:46:30;;;;;;;0.30;0.30;;;;;;;;;;5074179;28;20393;-67
2021/08/19 04:48:58;;;;;;;0.30;0.30;;;;;;;;;;5073981;28;20398;-67
2021/08/19 04:51:24;;;;;;;0.30;0.30;;;;;;;;;;5074109;28;20425;-66
2021/08/19 04:53:50;;;;;;;0.30;0.30;;;;;;;;;;5074088;28;20817;-66
2021/08/19 04:56:17;;;;;;;0.30;0.30;;;;;;;;;;5073534;28;20480;-65
2021/08/19 04:58:42;;;;;;;0.30;0.30;;;;;;;;;;5073759;28;20468;-65
2021/08/19 05:01:08;;;;;;;0.30;0.30;;;;;;;;;;5073962;28;20406;-66
2021/08/19 05:03:34;;;;;;;0.30;0.30;;;;;;;;;;5074222;28;20403;-66
2021/08/19 05:06:00;;;;;;;0.30;0.30;;;;;;;;;;5073816;28;20443;-66
2021/08/19 05:08:26;;;;;;;0.30;0.30;;;;;;;;;;5069113;28;20424;-62
2021/08/19 05:10:52;;;;;;;0.30;0.30;;;;;;;;;;5073135;28;20432;-66
2021/08/19 05:13:18;;;;;;;0.30;0.30;;;;;;;;;;5072836;28;20448;-66
2021/08/19 05:15:44;;;;;;;0.30;0.30;;;;;;;;;;5073608;28;20797;-65
2021/08/19 05:18:10;;;;;;;0.30;0.30;;;;;;;;;;5073066;28;20447;-65
2021/08/19 05:20:36;;;;;;;0.30;0.30;;;;;;;;;;5072993;28;20409;-65
2021/08/19 05:23:02;;;;;;;0.30;0.30;;;;;;;;;;5073151;28;20458;-68
2021/08/19 05:25:28;;;;;;;0.30;0.30;;;;;;;;;;5073469;28;20670;-65
2021/08/19 05:27:54;;;;;;;0.30;0.30;;;;;;;;;;5073191;28;20770;-65
2021/08/19 05:30:20;;;;;;;0.30;0.30;;;;;;;;;;5073065;28;20401;-65
2021/08/19 05:32:46;;;;;;;0.30;0.30;;;;;;;;;;5073106;28;20455;-67
2021/08/19 05:35:12;;;;;;;0.30;0.30;;;;;;;;;;5073171;28;20405;-65
2021/08/19 05:37:38;;;;;;;0.30;0.30;;;;;;;;;;5074844;28;20507;-66
2021/08/19 05:40:05;;;;;;;0.30;0.30;;;;;;;;;;5073988;28;20863;-65
2021/08/19 05:42:31;;;;;;;0.30;0.30;;;;;;;;;;5072478;28;20460;-65
2021/08/19 05:44:57;;;;;;;0.30;0.30;;;;;;;;;;5072533;28;20737;-66
2021/08/19 05:47:23;;;;;;;0.30;0.30;;;;;;;;;;5072500;28;20416;-65
2021/08/19 05:49:49;;;;;;;0.30;0.30;;;;;;;;;;5072767;28;20392;-66
2021/08/19 05:52:15;;;;;;;0.30;0.30;;;;;;;;;;5072810;28;20430;-66
2021/08/19 05:54:41;;;;;;;0.30;0.30;;;;;;;;;;5072858;28;20392;-63
2021/08/19 05:57:08;;;;;;;0.30;0.30;;;;;;;;;;5072645;28;20460;-65
2021/08/19 05:59:34;;;;;;;0.30;0.30;;;;;;;;;;5072211;28;20479;-66
2021/08/19 06:02:00;;;;;;;0.30;0.30;;;;;;;;;;5072570;28;20922;-66
2021/08/19 06:04:26;;;;;;;0.30;0.30;;;;;;;;;;5075860;28;20402;-65
2021/08/19 06:06:52;;;;;;;0.30;0.30;;;;;;;;;;5090720;28;20412;-66
2021/08/19 06:09:18;;;;;;;0.30;0.30;;;;;;;;;;5081507;28;20429;-65
2021/08/19 06:11:44;;;;;;;0.30;0.30;;;;;;;;;;5070458;28;20388;-66
2021/08/19 06:14:11;;;;;;;0.30;0.30;;;;;;;;;;5069570;28;20513;-67
2021/08/19 06:16:36;;;;;;;0.30;0.30;;;;;;;;;;5070160;28;20413;-67
2021/08/19 06:19:03;;;;;;;0.30;0.30;;;;;;;;;;5050981;28;20418;-66
2021/08/19 06:21:29;;;;;;;0.30;0.30;;;;;;;;;;5066939;28;20843;-66
2021/08/19 06:23:55;;;;;;;0.30;0.30;;;;;;;;;;5071903;28;20901;-66
2021/08/19 06:26:21;;;;;;;0.30;0.30;;;;;;;;;;5056831;28;20425;-65
2021/08/19 06:28:47;;;;;;;0.30;0.30;;;;;;;;;;5051652;28;20382;-65
2021/08/19 06:31:13;;;;;;;0.30;0.30;;;;;;;;;;5068178;28;20793;-64
2021/08/19 06:33:39;;;;;;;0.30;0.30;;;;;;;;;;5070388;28;20478;-65
2021/08/19 06:36:07;;;;;;;0.30;0.30;;;;;;;;;;5053557;28;20453;-67
2021/08/19 06:38:33;;;;;;;0.30;0.30;;;;;;;;;;5071711;28;20539;-66
2021/08/19 06:40:59;;;;;;;0.30;0.30;;;;;;;;;;5071633;28;20501;-65
2021/08/19 06:43:25;;;;;;;0.30;0.30;;;;;;;;;;5071399;28;20411;-66
2021/08/19 06:45:51;;;;;;;0.30;0.30;;;;;;;;;;5071359;28;20469;-64
2021/08/19 06:48:17;;;;;;;0.30;0.30;;;;;;;;;;5071165;28;20460;-62
2021/08/19 06:50:43;;;;;;;0.30;0.30;;;;;;;;;;5071881;28;21055;-65
2021/08/19 06:53:09;;;;;;;0.30;0.30;;;;;;;;;;5071367;28;20469;-66
2021/08/19 06:55:35;;;;;;;0.30;0.30;;;;;;;;;;5071582;28;20511;-66
2021/08/19 06:58:01;;;;;;;0.30;0.30;;;;;;;;;;5071568;28;20458;-65
2021/08/19 07:00:27;;;;;;;0.30;0.30;;;;;;;;;;5071647;28;20755;-67
2021/08/19 07:02:53;;;;;;;0.30;0.30;;;;;;;;;;5071705;28;20440;-66
2021/08/19 07:05:20;;;;;;;0.30;0.30;;;;;;;;;;5071169;28;20406;-67
2021/08/19 07:07:46;;;;;;;0.30;0.30;;;;;;;;;;5053382;28;20414;-66
2021/08/19 07:10:12;;;;;;;0.30;0.30;;;;;;;;;;5070340;28;20409;-65
2021/08/19 07:12:38;;;;;;;0.30;0.30;;;;;;;;;;5071544;28;20472;-65
2021/08/19 07:15:06;;;;;;;0.30;0.30;;;;;;;;;;5053596;28;20438;-63
2021/08/19 07:17:32;;;;;;;0.30;0.30;;;;;;;;;;5070610;28;20427;-63
2021/08/19 07:19:58;;;;;;;0.30;0.30;;;;;;;;;;5071309;28;20490;-65
2021/08/19 07:22:25;;;;;;;0.30;0.30;;;;;;;;;;5053340;28;20403;-66
2021/08/19 07:24:51;;;;;;;0.30;0.30;;;;;;;;;;5071600;28;20437;-66
2021/08/19 07:27:17;;;;;;;0.30;0.30;;;;;;;;;;5071575;28;20376;-67
2021/08/19 07:29:44;;;;;;;0.30;0.20;;;;;;;;;;5070471;28;20387;-63
2021/08/19 07:32:10;;;;;;;0.30;0.30;;;;;;;;;;5071190;28;20433;-66
2021/08/19 07:34:36;;;;;;;0.30;0.30;;;;;;;;;;5071616;28;20436;-65
2021/08/19 07:37:02;;;;;;;0.30;0.30;;;;;;;;;;5053459;28;20598;-66
2021/08/19 07:39:28;;;;;;;0.30;0.30;;;;;;;;;;5070611;28;20397;-68
2021/08/19 07:41:54;;;;;;;0.30;0.30;;;;;;;;;;5070779;28;20502;-67
2021/08/19 07:44:20;;;;;;;0.30;0.30;;;;;;;;;;5069109;28;20460;-66
2021/08/19 07:46:46;;;;;;;0.30;0.30;;;;;;;;;;5069142;28;20436;-66
2021/08/19 07:49:13;;;;;;;0.30;0.30;;;;;;;;;;5068971;28;20372;-65
2021/08/19 07:51:39;;;;;;;0.30;0.20;;;;;;;;;;5068709;28;20402;-66
2021/08/19 07:54:05;;;;;;;0.30;0.30;;;;;;;;;;5068910;28;20387;-65
2021/08/19 07:56:32;;;;;;;0.30;0.20;;;;;;;;;;5069410;28;20397;-66
2021/08/19 07:58:58;;;;;;;0.30;0.30;;;;;;;;;;5069039;28;20432;-65
2021/08/19 08:01:24;;;;;;;0.30;0.30;;;;;;;;;;5073829;28;20671;-65
2021/08/19 08:03:50;;;;;;;0.30;0.30;;;;;;;;;;5074852;28;20417;-66
2021/08/19 08:06:16;;;;;;;0.30;0.30;;;;;;;;;;5056634;28;20409;-66
2021/08/19 08:08:42;;;;;;;0.30;0.30;;;;;;;;;;5074743;28;20409;-64
2021/08/19 08:11:09;;;;;;;0.30;0.30;;;;;;;;;;5074774;28;20497;-65
2021/08/19 08:13:35;;;;;;;0.30;0.30;;;;;;;;;;5074250;28;20483;-65
2021/08/19 08:16:01;;;;;;;0.30;0.20;;;;;;;;;;5075127;28;20729;-66
2021/08/19 08:18:27;;;;;;;0.30;0.30;;;;;;;;;;5074295;28;20466;-66
2021/08/19 08:20:54;;;;;;;0.30;0.20;;;;;;;;;;5074029;28;20919;-66
2021/08/19 08:23:20;;;;;;;0.30;0.30;;;;;;;;;;5074177;28;20417;-64
2021/08/19 08:25:49;;;;;;;0.30;0.30;;;;;;;;;;5076812;28;20405;-67
2021/08/19 08:28:19;;;;;;;0.30;0.23;;;;;;;;;;5074264;28;20433;-66
2021/08/19 08:30:46;;;;;;;0.30;0.20;;;;;;;;;;5073143;28;20410;-65
2021/08/19 08:33:13;;;;;;;0.30;0.30;;;;;;;;;;5071997;28;20429;-66
2021/08/19 08:35:39;;;;;;;0.30;0.30;;;;;;;;;;5073307;28;20417;-65
2021/08/19 08:38:06;;;;;;;0.20;0.20;;;;;;;;;;5074114;28;20453;-65
2021/08/19 08:40:36;;;;;;;0.30;0.30;;;;;;;;;;5073650;28;20801;-64
2021/08/19 08:43:03;;;;;;;0.20;0.20;;;;;;;;;;5055065;28;20432;-65
2021/08/19 08:45:34;;;;;;;0.20;0.20;;;;;;;;;;5072999;28;20480;-64
2021/08/19 08:48:00;;;;;;;0.30;0.30;;;;;;;;;;5073249;28;20380;-65
2021/08/19 08:50:27;;;;;;;0.30;0.30;;;;;;;;;;5073919;28;20388;-64
2021/08/19 08:52:53;;;;;;;0.20;0.20;;;;;;;;;;5072540;28;20425;-64
2021/08/19 08:55:19;;;;;;;0.30;0.30;;;;;;;;;;5073182;28;20405;-65
2021/08/19 08:57:46;;;;;;;0.30;0.30;;;;;;;;;;5073211;28;20461;-64
2021/08/19 09:00:12;;;;;;;0.20;0.20;;;;;;;;;;5073206;28;20410;-63
2021/08/19 09:02:38;;;;;;;0.20;0.20;;;;;;;;;;5073008;28;20817;-65
2021/08/19 09:05:16;;;;;;;0.30;0.30;;;;;;;;;;5073318;28;20405;-64
2021/08/19 09:07:43;;;;;;;0.20;0.20;;;;;;;;;;5054902;28;20420;-65
2021/08/19 09:10:10;;;;;;;0.20;0.20;;;;;;;;;;5073008;28;20781;-63
2021/08/19 09:12:42;;;;;;;0.20;0.20;;;;;;;;;;5072741;28;20461;-64
2021/08/19 09:15:16;;;;;;;0.30;0.30;;;;;;;;;;5073137;28;20879;-65
2021/08/19 09:17:49;;;;;;;0.30;0.30;;;;;;;;;;5073110;28;20457;-63
2021/08/19 09:20:16;;;;;;;0.30;0.30;;;;;;;;;;5072260;28;20916;-64
2021/08/19 09:23:00;;;;;;;0.30;0.30;;;;;;;;;;5072659;28;20618;-65
2021/08/19 09:25:28;;;;;;;0.30;0.30;;;;;;;;;;5072831;28;20437;-66
2021/08/19 09:28:13;;;;;;;0.30;0.30;;;;;;;;;;5072990;28;20413;-63
2021/08/19 09:30:41;;;;;;;0.30;0.30;;;;;;;;;;5071727;28;20444;-64
2021/08/19 09:33:08;;;;;;;0.20;0.20;;;;;;;;;;5072385;28;20436;-65
2021/08/19 09:35:34;;;;;;;0.23;0.23;;;;;;;;;;5072761;28;20870;-64
2021/08/19 09:38:07;;;;;;;0.20;0.20;;;;;;;;;;5073117;28;20427;-64
2021/08/19 09:40:34;;;;;;;0.20;0.20;;;;;;;;;;5063038;28;20419;-64
2021/08/19 09:43:00;;;;;;;0.20;0.20;;;;;;;;;;5051521;28;20841;-64
2021/08/19 09:45:26;;;;;;;0.20;0.20;;;;;;;;;;5052946;28;20386;-64
2021/08/19 09:47:53;;;;;;;0.30;0.30;;;;;;;;;;5057402;28;20411;-66
2021/08/19 09:50:20;;;;;;;0.20;0.20;;;;;;;;;;5070213;28;20457;-64
2021/08/19 09:52:47;;;;;;;0.20;0.20;;;;;;;;;;5058995;28;20434;-64
2021/08/19 09:55:23;;;;;;;0.20;0.20;;;;;;;;;;5052823;28;20410;-65
2021/08/19 09:57:49;;;;;;;0.20;0.20;;;;;;;;;;5055680;28;20457;-65
2021/08/19 10:00:25;;;;;;;0.20;0.20;;;;;;;;;;5054625;28;20415;-65
2021/08/19 10:02:51;;;;;;;0.20;0.20;;;;;;;;;;5053473;28;20413;-63
2021/08/19 10:05:17;;;;;;;0.20;0.20;;;;;;;;;;5053367;28;20381;-63
2021/08/19 10:07:43;;;;;;;0.20;0.20;;;;;;;;;;5052751;28;20412;-63
2021/08/19 10:10:09;;;;;;;0.20;0.20;;;;;;;;;;5052455;28;20410;-64
2021/08/19 10:12:38;;;;;;;0.20;0.20;;;;;;;;;;5051375;28;20412;-65
2021/08/19 10:15:05;;;;;;;0.20;0.20;;;;;;;;;;5051295;28;20390;-64
2021/08/19 10:17:31;;;;;;;0.20;0.20;;;;;;;;;;5051476;28;20793;-64
2021/08/19 10:19:57;;;;;;;0.20;0.20;;;;;;;;;;5051937;28;20432;-65
2021/08/19 10:22:23;;;;;;;0.20;0.20;;;;;;;;;;5051315;28;20409;-65
2021/08/19 10:24:54;;;;;;;0.20;0.20;;;;;;;;;;5051425;28;20910;-64
2021/08/19 10:27:23;;;;;;;0.20;0.20;;;;;;;;;;5051488;28;20775;-64
2021/08/19 10:29:53;;;;;;;0.20;0.20;;;;;;;;;;5051629;28;20494;-65
2021/08/19 10:32:23;;;;;;;0.20;0.20;;;;;;;;;;5051586;28;20395;-65
2021/08/19 10:34:58;;;;;;;0.20;0.20;;;;;;;;;;5051769;28;20418;-63
2021/08/19 10:37:50;;;;;;;0.20;0.20;;;;;;;;;;5050822;28;20465;-63
2021/08/19 10:40:23;;;;;;;0.20;0.20;;;;;;;;;;5051648;28;20506;-64
2021/08/19 10:42:51;;;;;;;0.20;0.20;;;;;;;;;;5051517;28;20473;-64
2021/08/19 10:45:29;;;;;;;0.20;0.20;;;;;;;;;;5052058;28;20411;-66
2021/08/19 10:47:55;;;;;;;0.20;0.20;;;;;;;;;;5051169;28;20415;-65
2021/08/19 10:50:22;;;;;;;0.20;0.20;;;;;;;;;;5051822;28;20916;-66
2021/08/19 10:52:48;;;;;;;0.20;0.20;;;;;;;;;;5051293;28;20457;-66
2021/08/19 10:55:15;;;;;;;0.20;0.20;;;;;;;;;;5033899;28;20415;-66
2021/08/19 10:57:47;;;;;;;0.20;0.20;;;;;;;;;;5050822;28;20513;-65
2021/08/19 11:00:13;;;;;;;0.20;0.20;;;;;;;;;;5050817;28;20404;-66
2021/08/19 11:02:40;;;;;;;0.20;0.20;;;;;;;;;;5051023;28;20937;-65
2021/08/19 11:05:07;;;;;;;0.20;0.20;;;;;;;;;;5051504;28;20441;-63
2021/08/19 11:07:49;;;;;;;0.20;0.20;;;;;;;;;;5051138;28;20757;-66
2021/08/19 11:10:20;;;;;;;0.20;0.20;;;;;;;;;;5050471;28;20409;-65
2021/08/19 11:12:46;;;;;;;0.20;0.20;;;;;;;;;;5032839;28;20542;-65
2021/08/19 11:15:12;;;;;;;0.20;0.20;;;;;;;;;;5051413;28;20417;-66
2021/08/19 11:17:39;;;;;;;0.20;0.20;;;;;;;;;;5051313;28;20477;-66
2021/08/19 11:20:24;;;;;;;0.20;0.20;;;;;;;;;;5051068;28;20412;-65
2021/08/19 11:22:59;;;;;;;0.20;0.20;;;;;;;;;;5050596;28;20427;-66
2021/08/19 11:25:26;;;;;;;0.20;0.20;;;;;;;;;;5051287;28;20397;-64
2021/08/19 11:27:54;;;;;;;0.20;0.20;;;;;;;;;;5051328;28;20453;-65
2021/08/19 11:30:31;;;;;;;0.20;0.20;;;;;;;;;;5050702;28;20497;-63
2021/08/19 11:33:16;;;;;;;0.20;0.20;;;;;;;;;;5032152;28;20418;-65
2021/08/19 11:35:43;;;;;;;0.20;0.20;;;;;;;;;;5054587;28;20385;-64
2021/08/19 11:38:16;;;;;;;0.20;0.20;;;;;;;;;;5055258;28;20494;-65
2021/08/19 11:40:44;;;;;;;0.20;0.20;;;;;;;;;;5055040;28;20773;-65
2021/08/19 11:43:23;;;;;;;0.20;0.20;;;;;;;;;;5064480;28;20448;-65
2021/08/19 11:45:51;;;;;;;0.20;0.20;;;;;;;;;;5075009;28;20388;-65
2021/08/19 11:48:20;;;;;;;0.20;0.20;;;;;;;;;;5074968;28;20417;-64
2021/08/19 11:50:57;;;;;;;0.20;0.20;;;;;;;;;;5056886;28;21017;-64
2021/08/19 11:53:23;;;;;;;0.20;0.20;;;;;;;;;;5074484;28;20399;-65
2021/08/19 11:55:50;;;;;;;0.20;0.20;;;;;;;;;;5074738;28;20471;-65
2021/08/19 11:58:17;;;;;;;0.20;0.20;;;;;;;;;;5074414;28;21001;-64
2021/08/19 12:00:58;;;;;;;0.20;0.20;;;;;;;;;;5074264;28;20447;-64
2021/08/19 12:03:25;;;;;;;0.20;0.20;;;;;;;;;;5074558;28;20448;-66
2021/08/19 12:05:58;;;;;;;0.20;0.20;;;;;;;;;;5074340;28;20886;-65
2021/08/19 12:08:25;;;;;;;0.20;0.20;;;;;;;;;;5074543;28;20465;-64
2021/08/19 12:10:51;;;;;;;0.20;0.20;;;;;;;;;;5073816;28;20398;-63
2021/08/19 12:13:17;;;;;;;0.20;0.20;;;;;;;;;;5073838;28;20814;-65
2021/08/19 12:15:43;;;;;;;0.20;0.20;;;;;;;;;;5076333;28;20892;-65
2021/08/19 12:18:10;;;;;;;0.20;0.20;;;;;;;;;;5075285;28;20475;-62
2021/08/19 12:20:37;;;;;;;0.20;0.20;;;;;;;;;;5073928;28;20411;-65
2021/08/19 12:23:20;;;;;;;0.20;0.20;;;;;;;;;;5055692;28;20440;-66
2021/08/19 12:25:46;;;;;;;0.20;0.20;;;;;;;;;;5074731;28;20406;-63
2021/08/19 12:28:12;;;;;;;0.20;0.20;;;;;;;;;;5074285;28;20414;-65
2021/08/19 12:30:54;;;;;;;0.20;0.20;;;;;;;;;;5074107;28;20415;-64
2021/08/19 12:33:29;;;;;;;0.20;0.20;;;;;;;;;;5074228;28;20502;-65
2021/08/19 12:36:15;;;;;;;0.20;0.20;;;;;;;;;;5074137;28;20413;-63
2021/08/19 12:38:41;;;;;;;0.20;0.20;;;;;;;;;;5073873;28;20799;-64
2021/08/19 12:41:34;;;;;;;0.20;0.20;;;;;;;;;;5073651;28;20809;-64
2021/08/19 12:44:04;;;;;;;0.20;0.20;;;;;;;;;;5052903;28;20796;-62
2021/08/19 12:46:42;;;;;;;0.20;0.20;;;;;;;;;;5053778;28;20405;-67
2021/08/19 12:49:24;;;;;;;0.20;0.20;;;;;;;;;;5053698;28;20406;-66
2021/08/19 12:52:09;;;;;;;0.20;0.20;;;;;;;;;;5053756;28;20403;-66
2021/08/19 12:54:35;;;;;;;0.20;0.20;;;;;;;;;;5035919;28;20426;-63
2021/08/19 12:57:01;;;;;;;0.20;0.20;;;;;;;;;;5053912;28;20534;-65
2021/08/19 12:59:28;;;;;;;0.20;0.20;;;;;;;;;;5053317;28;20922;-65
2021/08/19 13:01:55;;;;;;;0.20;0.20;;;;;;;;;;5053073;28;20426;-66
2021/08/19 13:04:21;;;;;;;0.20;0.20;;;;;;;;;;5053442;28;20373;-65
2021/08/19 13:06:47;;;;;;;0.20;0.20;;;;;;;;;;5053892;28;20373;-65
2021/08/19 13:09:13;;;;;;;0.20;0.20;;;;;;;;;;5053664;28;20417;-64
2021/08/19 13:11:39;;;;;;;0.20;0.20;;;;;;;;;;5052449;28;20385;-65
2021/08/19 13:14:05;;;;;;;0.20;0.20;;;;;;;;;;5053408;28;20418;-66
2021/08/19 13:16:31;;;;;;;0.20;0.20;;;;;;;;;;5053806;28;20407;-66
2021/08/19 13:18:57;;;;;;;0.20;0.20;;;;;;;;;;5053188;28;20469;-66
2021/08/19 13:21:23;;;;;;;0.20;0.20;;;;;;;;;;5053242;28;20403;-67
2021/08/19 13:23:49;;;;;;;0.20;0.20;;;;;;;;;;5051517;28;20468;-67
2021/08/19 13:26:15;;;;;;;0.20;0.20;;;;;;;;;;5053099;28;20381;-66
2021/08/19 13:28:41;;;;;;;0.20;0.20;;;;;;;;;;5054928;28;20398;-65
2021/08/19 13:31:07;;;;;;;0.20;0.20;;;;;;;;;;5072733;28;20810;-67
2021/08/19 13:33:33;;;;;;;0.20;0.20;;;;;;;;;;5070754;28;20440;-62
2021/08/19 13:35:59;;;;;;;0.20;0.20;;;;;;;;;;5072245;28;20409;-63
2021/08/19 13:38:25;;;;;;;0.20;0.20;;;;;;;;;;5072258;28;20423;-64
2021/08/19 13:40:51;;;;;;;0.20;0.20;;;;;;;;;;5072640;28;20765;-64
2021/08/19 13:43:17;;;;;;;0.20;0.20;;;;;;;;;;5071418;28;20448;-65
2021/08/19 13:45:43;;;;;;;0.20;0.20;;;;;;;;;;5071987;28;20405;-63
2021/08/19 13:48:10;;;;;;;0.20;0.20;;;;;;;;;;5072268;28;20433;-63
2021/08/19 13:50:36;;;;;;;0.20;0.20;;;;;;;;;;5072037;28;20409;-63
2021/08/19 13:53:02;;;;;;;0.20;0.20;;;;;;;;;;5071235;28;20813;-64
2021/08/19 13:55:28;;;;;;;0.20;0.20;;;;;;;;;;5072059;28;20857;-62
2021/08/19 13:57:54;;;;;;;0.20;0.20;;;;;;;;;;5071263;28;20457;-65
2021/08/19 14:00:20;;;;;;;0.20;0.20;;;;;;;;;;5072306;28;20492;-64
2021/08/19 14:02:48;;;;;;;0.20;0.20;;;;;;;;;;5071955;28;20440;-62
2021/08/19 14:05:14;;;;;;;0.20;0.20;;;;;;;;;;5072132;28;20414;-64
2021/08/19 14:07:40;;;;;;;0.20;0.20;;;;;;;;;;5071909;28;20410;-62
2021/08/19 14:10:07;;;;;;;0.20;0.20;;;;;;;;;;5072357;28;20420;-63
2021/08/19 14:12:33;;;;;;;0.20;0.20;;;;;;;;;;5071594;28;20920;-62
2021/08/19 14:14:59;;;;;;;0.20;0.20;;;;;;;;;;5071904;28;20416;-62
2021/08/19 14:17:25;;;;;;;0.20;0.20;;;;;;;;;;5072003;28;20540;-65
2021/08/19 14:19:51;;;;;;;0.20;0.20;;;;;;;;;;5071773;28;20380;-64
2021/08/19 14:22:17;;;;;;;0.20;0.20;;;;;;;;;;5071889;28;20424;-64
2021/08/19 14:24:43;;;;;;;0.30;0.30;;;;;;;;;;5071007;28;20405;-64
2021/08/19 14:27:09;;;;;;;0.20;0.20;;;;;;;;;;5072208;28;20429;-64
2021/08/19 14:29:35;;;;;;;0.20;0.20;;;;;;;;;;5071763;28;20467;-62
2021/08/19 14:32:01;;;;;;;0.20;0.20;;;;;;;;;;5071344;28;20421;-65
2021/08/19 14:34:27;;;;;;;0.20;0.20;;;;;;;;;;5072720;28;20437;-65
2021/08/19 14:36:53;;;;;;;0.20;0.20;;;;;;;;;;5054995;28;20487;-64
2021/08/19 14:39:19;;;;;;;0.20;0.20;;;;;;;;;;5076155;28;20396;-62
2021/08/19 14:41:45;;;;;;;0.20;0.20;;;;;;;;;;5079081;28;21231;-63
2021/08/19 14:44:11;;;;;;;0.20;0.20;;;;;;;;;;5048408;28;20937;-63